createdAt,value
2022-12-31T00:01:15.153Z,10.55
2022-12-31T00:03:45.865Z,10.54
2022-12-31T00:06:17.105Z,10.40
2022-12-31T00:08:46.165Z,10.50
2022-12-31T00:11:15.518Z,10.53
2022-12-31T00:13:45.884Z,10.51
2022-12-31T00:16:18.410Z,10.60
2022-12-31T00:18:51.489Z,10.78
2022-12-31T00:21:20.944Z,10.60
2022-12-31T00:23:50.149Z,10.75
2022-12-31T00:26:21.097Z,10.93
2022-12-31T00:28:50.230Z,10.84
2022-12-31T00:31:20.726Z,11.23
2022-12-31T00:33:51.239Z,10.70
2022-12-31T00:36:23.361Z,10.88
2022-12-31T00:38:54.521Z,10.83
2022-12-31T00:41:25.062Z,11.06
2022-12-31T00:43:53.854Z,10.92
2022-12-31T00:46:23.081Z,11.03
2022-12-31T00:48:53.365Z,11.09
2022-12-31T00:51:27.502Z,10.89
2022-12-31T00:53:56.674Z,11.11
2022-12-31T00:56:28.308Z,10.82
2022-12-31T00:58:57.212Z,10.76
2022-12-31T01:01:28.551Z,10.84
2022-12-31T01:04:03.359Z,10.88
2022-12-31T01:06:32.199Z,10.84
2022-12-31T01:09:00.764Z,11.00
2022-12-31T01:11:30.130Z,11.15
2022-12-31T01:14:01.472Z,10.96
2022-12-31T01:16:34.248Z,11.07
2022-12-31T01:19:07.877Z,11.01
2022-12-31T01:21:37.270Z,10.90
2022-12-31T01:24:06.690Z,11.03
2022-12-31T01:26:35.413Z,11.06
2022-12-31T01:29:04.902Z,11.16
2022-12-31T01:31:36.416Z,11.00
2022-12-31T01:34:07.076Z,10.93
2022-12-31T01:36:37.275Z,11.22
2022-12-31T01:39:08.017Z,11.17
2022-12-31T01:41:39.627Z,11.11
2022-12-31T01:44:51.581Z,11.03
2022-12-31T01:47:32.098Z,11.13
2022-12-31T01:50:09.621Z,11.14
2022-12-31T01:52:42.927Z,11.23
2022-12-31T01:55:21.753Z,11.08
2022-12-31T01:57:53.741Z,11.06
2022-12-31T02:00:22.453Z,11.25
2022-12-31T02:02:51.256Z,11.33
2022-12-31T02:05:28.897Z,11.16
2022-12-31T02:07:58.935Z,11.00
2022-12-31T02:10:27.673Z,10.97
2022-12-31T02:12:56.215Z,11.07
2022-12-31T02:15:40.120Z,11.38
2022-12-31T02:18:18.586Z,11.16
2022-12-31T02:21:14.456Z,11.20
2022-12-31T02:24:42.385Z,11.10
2022-12-31T02:27:14.374Z,11.34
2022-12-31T02:30:11.494Z,11.06
2022-12-31T02:32:56.673Z,11.08
2022-12-31T02:35:31.438Z,11.01
2022-12-31T02:38:06.902Z,10.96
2022-12-31T02:40:38.167Z,10.85
2022-12-31T02:43:07.390Z,10.88
2022-12-31T02:45:41.747Z,10.78
2022-12-31T02:48:29.655Z,10.72
2022-12-31T02:51:13.674Z,10.82
2022-12-31T02:54:23.245Z,10.79
2022-12-31T02:57:03.901Z,10.87
2022-12-31T02:59:57.042Z,10.74
2022-12-31T03:02:30.165Z,10.77
2022-12-31T03:04:59.352Z,10.97
2022-12-31T03:07:32.020Z,10.83
2022-12-31T03:10:01.161Z,10.72
2022-12-31T03:12:47.107Z,10.97
2022-12-31T03:15:22.742Z,10.92
2022-12-31T03:17:56.939Z,10.72
2022-12-31T03:20:47.746Z,10.88
2022-12-31T03:23:21.128Z,10.85
2022-12-31T03:25:48.761Z,10.96
2022-12-31T03:28:19.923Z,11.03
2022-12-31T03:30:52.147Z,11.00
2022-12-31T03:33:23.044Z,10.85
2022-12-31T03:35:52.732Z,10.86
2022-12-31T03:38:21.920Z,10.97
2022-12-31T03:40:53.626Z,10.88
2022-12-31T03:43:22.296Z,11.04
2022-12-31T03:45:52.758Z,11.10
2022-12-31T03:48:24.514Z,10.86
2022-12-31T03:50:53.257Z,10.80
2022-12-31T03:53:21.941Z,11.07
2022-12-31T03:55:53.398Z,11.21
2022-12-31T03:58:22.804Z,11.27
2022-12-31T04:00:51.781Z,11.24
2022-12-31T04:03:20.448Z,11.16
2022-12-31T04:05:55.687Z,11.35
2022-12-31T04:08:24.325Z,11.18
2022-12-31T04:11:18.912Z,11.30
2022-12-31T04:13:49.223Z,11.37
2022-12-31T04:16:17.788Z,11.29
2022-12-31T04:18:46.332Z,11.43
2022-12-31T04:21:16.155Z,11.54
2022-12-31T04:23:44.694Z,11.42
2022-12-31T04:26:13.384Z,11.33
2022-12-31T04:28:41.856Z,11.49
2022-12-31T04:31:11.324Z,11.51
2022-12-31T04:33:39.818Z,11.45
2022-12-31T04:36:10.242Z,11.58
2022-12-31T04:38:40.076Z,11.62
2022-12-31T04:41:21.261Z,11.49
2022-12-31T04:43:52.430Z,11.50
2022-12-31T04:46:23.807Z,11.61
2022-12-31T04:48:53.042Z,11.54
2022-12-31T04:51:22.309Z,11.70
2022-12-31T04:53:52.519Z,11.62
2022-12-31T04:56:21.698Z,11.54
2022-12-31T04:58:50.168Z,11.56
2022-12-31T05:01:19.294Z,11.29
2022-12-31T05:03:49.121Z,11.43
2022-12-31T05:06:20.975Z,11.67
2022-12-31T05:08:51.279Z,11.58
2022-12-31T05:11:19.876Z,11.65
2022-12-31T05:13:48.567Z,11.64
2022-12-31T05:16:17.090Z,11.61
2022-12-31T05:18:45.595Z,11.62
2022-12-31T05:21:20.766Z,11.72
2022-12-31T05:23:51.376Z,11.72
2022-12-31T05:26:19.918Z,11.75
2022-12-31T05:28:48.408Z,11.70
2022-12-31T05:31:16.927Z,11.55
2022-12-31T05:33:45.395Z,11.78
2022-12-31T05:36:14.760Z,11.48
2022-12-31T05:38:43.407Z,11.59
2022-12-31T05:41:13.734Z,11.72
2022-12-31T05:43:42.208Z,11.78
2022-12-31T05:46:11.096Z,11.72
2022-12-31T05:48:39.590Z,11.97
2022-12-31T05:51:08.138Z,11.82
2022-12-31T05:53:36.646Z,11.71
2022-12-31T05:56:05.543Z,11.58
2022-12-31T05:58:35.393Z,11.52
2022-12-31T06:01:03.901Z,11.72
2022-12-31T06:03:32.496Z,11.75
2022-12-31T06:06:02.937Z,11.63
2022-12-31T06:08:31.430Z,11.73
2022-12-31T06:11:00.150Z,11.82
2022-12-31T06:13:28.643Z,11.98
2022-12-31T06:15:58.554Z,11.63
2022-12-31T06:18:27.261Z,11.56
2022-12-31T06:20:55.718Z,11.68
2022-12-31T06:23:24.175Z,11.63
2022-12-31T06:25:52.669Z,11.61
2022-12-31T06:28:21.171Z,12.25
2022-12-31T06:30:50.192Z,11.89
2022-12-31T06:33:20.310Z,11.80
2022-12-31T06:35:48.790Z,12.01
2022-12-31T06:38:17.246Z,11.92
2022-12-31T06:40:45.715Z,11.83
2022-12-31T06:43:14.439Z,11.68
2022-12-31T06:45:43.163Z,11.87
2022-12-31T06:48:11.817Z,11.81
2022-12-31T06:50:41.728Z,11.58
2022-12-31T06:53:10.411Z,11.62
2022-12-31T06:55:39.645Z,11.59
2022-12-31T06:58:13.577Z,11.58
2022-12-31T07:00:49.509Z,11.52
2022-12-31T07:03:31.756Z,11.73
2022-12-31T07:06:10.531Z,11.62
2022-12-31T07:08:49.425Z,11.92
2022-12-31T07:11:23.648Z,11.57
2022-12-31T07:14:09.874Z,11.73
2022-12-31T07:16:51.599Z,11.92
2022-12-31T07:19:33.849Z,11.78
2022-12-31T07:22:04.981Z,11.67
2022-12-31T07:24:34.242Z,11.86
2022-12-31T07:27:16.843Z,11.79
2022-12-31T07:30:03.472Z,11.90
2022-12-31T07:33:05.641Z,12.07
2022-12-31T07:35:46.604Z,12.04
2022-12-31T07:38:26.034Z,11.83
2022-12-31T07:41:09.725Z,11.92
2022-12-31T07:43:53.312Z,12.03
2022-12-31T07:46:40.050Z,12.25
2022-12-31T07:49:13.068Z,12.33
2022-12-31T07:51:45.405Z,11.97
2022-12-31T07:54:15.268Z,12.16
2022-12-31T07:56:44.523Z,11.95
2022-12-31T07:59:28.815Z,11.88
2022-12-31T08:02:06.217Z,11.92
2022-12-31T08:04:44.044Z,12.00
2022-12-31T08:07:21.963Z,12.14
2022-12-31T08:10:01.164Z,12.10
2022-12-31T08:12:36.165Z,12.19
2022-12-31T08:15:14.069Z,12.26
2022-12-31T08:17:43.091Z,12.40
2022-12-31T08:20:15.848Z,12.36
2022-12-31T08:23:12.827Z,12.30
2022-12-31T08:26:08.361Z,12.18
2022-12-31T08:28:56.557Z,12.65
2022-12-31T08:31:31.845Z,12.25
2022-12-31T08:34:14.179Z,12.75
2022-12-31T08:36:53.504Z,12.71
2022-12-31T08:39:39.524Z,12.50
2022-12-31T08:42:20.894Z,12.55
2022-12-31T08:44:57.652Z,12.51
2022-12-31T08:47:38.558Z,12.35
2022-12-31T08:50:13.879Z,12.47
2022-12-31T08:52:43.119Z,12.60
2022-12-31T08:55:17.392Z,12.50
2022-12-31T08:58:02.849Z,12.36
2022-12-31T09:00:33.035Z,12.72
2022-12-31T09:03:34.689Z,12.52
2022-12-31T09:06:11.271Z,12.68
2022-12-31T09:08:50.396Z,12.77
2022-12-31T09:11:24.741Z,12.75
2022-12-31T09:14:18.934Z,12.70
2022-12-31T09:16:57.711Z,12.87
2022-12-31T09:19:26.236Z,12.67
2022-12-31T09:21:55.846Z,12.54
2022-12-31T09:24:25.154Z,12.89
2022-12-31T09:27:04.766Z,12.72
2022-12-31T09:29:52.810Z,12.87
2022-12-31T09:32:33.391Z,12.66
2022-12-31T09:35:14.049Z,12.45
2022-12-31T09:37:49.876Z,12.84
2022-12-31T09:40:55.388Z,12.59
2022-12-31T09:44:29.223Z,12.92
2022-12-31T09:47:50.532Z,12.60
2022-12-31T09:50:53.043Z,12.81
2022-12-31T09:53:43.555Z,13.21
2022-12-31T09:56:19.445Z,12.89
2022-12-31T09:59:00.179Z,12.99
2022-12-31T10:01:41.684Z,12.64
2022-12-31T10:04:43.831Z,12.70
2022-12-31T10:07:35.535Z,13.15
2022-12-31T10:10:14.591Z,12.83
2022-12-31T10:13:18.274Z,12.89
2022-12-31T10:16:16.073Z,13.11
2022-12-31T10:19:28.507Z,13.20
2022-12-31T10:22:15.964Z,13.46
2022-12-31T10:24:56.440Z,13.35
2022-12-31T10:27:49.459Z,13.37
2022-12-31T10:30:20.998Z,13.27
2022-12-31T10:33:04.596Z,13.66
2022-12-31T10:35:44.545Z,13.70
2022-12-31T10:38:32.058Z,13.89
2022-12-31T10:41:49.649Z,13.47
2022-12-31T10:45:14.144Z,13.68
2022-12-31T10:48:39.375Z,13.82
2022-12-31T10:52:04.168Z,13.83
2022-12-31T10:55:35.995Z,13.65
2022-12-31T10:58:36.839Z,13.62
2022-12-31T11:01:12.726Z,13.62
2022-12-31T11:04:34.368Z,13.92
2022-12-31T11:07:43.979Z,13.64
2022-12-31T11:11:06.404Z,13.91
2022-12-31T11:14:10.813Z,14.39
2022-12-31T11:16:58.767Z,14.01
2022-12-31T11:19:38.527Z,14.20
2022-12-31T11:22:39.217Z,14.67
2022-12-31T11:25:24.501Z,14.43
2022-12-31T11:28:12.342Z,14.38
2022-12-31T11:30:56.980Z,14.29
2022-12-31T11:33:50.544Z,14.71
2022-12-31T11:36:34.589Z,14.75
2022-12-31T11:39:36.565Z,14.91
2022-12-31T11:42:17.621Z,14.78
2022-12-31T11:44:57.035Z,14.80
2022-12-31T11:50:56.860Z,15.01
2022-12-31T11:53:43.591Z,15.07
2022-12-31T11:56:19.247Z,15.00
2022-12-31T11:58:51.141Z,15.17
2022-12-31T12:01:24.532Z,15.04
2022-12-31T12:03:53.143Z,15.19
2022-12-31T12:06:29.326Z,14.82
2022-12-31T12:09:02.216Z,14.82
2022-12-31T12:11:37.023Z,14.85
2022-12-31T12:14:21.663Z,14.81
2022-12-31T12:17:00.830Z,14.79
2022-12-31T12:19:35.897Z,15.00
2022-12-31T12:22:13.817Z,14.73
2022-12-31T12:24:53.663Z,14.96
2022-12-31T12:27:28.856Z,14.94
2022-12-31T12:29:57.728Z,14.92
2022-12-31T12:32:28.606Z,14.82
2022-12-31T12:34:57.092Z,15.04
2022-12-31T12:37:32.412Z,14.87
2022-12-31T12:40:03.711Z,14.96
2022-12-31T12:42:33.995Z,15.06
2022-12-31T12:45:06.246Z,14.89
2022-12-31T12:47:35.819Z,15.09
2022-12-31T12:50:06.076Z,14.72
2022-12-31T12:52:59.754Z,14.77
2022-12-31T12:55:40.257Z,14.87
2022-12-31T12:58:22.808Z,14.87
2022-12-31T13:01:02.361Z,14.69
2022-12-31T13:07:24.699Z,14.87
2022-12-31T13:10:14.762Z,14.85
2022-12-31T13:13:22.884Z,14.79
2022-12-31T13:15:48.803Z,14.68
2022-12-31T13:18:41.202Z,14.67
2022-12-31T13:21:28.257Z,14.92
2022-12-31T13:24:02.396Z,15.03
2022-12-31T13:26:38.422Z,14.62
2022-12-31T13:29:15.771Z,15.04
2022-12-31T13:31:47.032Z,15.04
2022-12-31T13:34:19.857Z,14.80
2022-12-31T13:36:50.823Z,14.95
2022-12-31T13:39:26.525Z,14.72
2022-12-31T13:42:02.543Z,14.92
2022-12-31T13:44:37.333Z,14.79
2022-12-31T13:47:13.967Z,14.98
2022-12-31T13:49:49.231Z,15.03
2022-12-31T13:52:29.072Z,14.91
2022-12-31T13:55:06.049Z,15.20
2022-12-31T13:57:43.687Z,14.80
2022-12-31T14:00:23.265Z,14.72
2022-12-31T14:03:03.977Z,14.99
2022-12-31T14:05:37.729Z,14.79
2022-12-31T14:08:07.938Z,14.64
2022-12-31T14:10:49.661Z,14.73
2022-12-31T14:13:37.843Z,14.81
2022-12-31T14:16:17.895Z,15.04
2022-12-31T14:18:58.401Z,14.94
2022-12-31T14:21:35.847Z,14.87
2022-12-31T14:24:14.980Z,14.29
2022-12-31T14:26:47.946Z,14.21
2022-12-31T14:29:33.187Z,13.93
2022-12-31T14:32:33.335Z,13.53
2022-12-31T14:35:27.837Z,13.47
2022-12-31T14:38:07.000Z,13.41
2022-12-31T14:40:51.166Z,13.30
2022-12-31T14:43:31.913Z,12.88
2022-12-31T14:46:13.113Z,12.73
2022-12-31T14:48:56.940Z,12.40
2022-12-31T14:51:30.747Z,12.03
2022-12-31T14:54:00.172Z,12.57
2022-12-31T14:56:39.155Z,12.57
2022-12-31T14:59:27.353Z,12.61
2022-12-31T15:01:56.815Z,12.23
2022-12-31T15:04:43.875Z,11.84
2022-12-31T15:07:23.624Z,11.75
2022-12-31T15:10:14.076Z,11.61
2022-12-31T15:13:03.552Z,11.20
2022-12-31T15:16:10.986Z,11.21
2022-12-31T15:19:04.604Z,10.88
2022-12-31T15:21:57.761Z,10.96
2022-12-31T15:24:30.761Z,11.13
2022-12-31T15:27:02.237Z,10.97
2022-12-31T15:29:35.151Z,10.85
2022-12-31T15:32:06.498Z,10.60
2022-12-31T15:34:37.929Z,10.54
2022-12-31T15:37:31.111Z,10.50
2022-12-31T15:40:19.864Z,10.41
2022-12-31T15:42:52.490Z,10.50
2022-12-31T15:45:27.811Z,10.25
2022-12-31T15:47:59.564Z,10.14
2022-12-31T15:50:29.155Z,10.23
2022-12-31T15:52:59.178Z,10.02
2022-12-31T15:55:34.896Z,10.15
2022-12-31T15:58:07.887Z,10.02
2022-12-31T16:00:56.854Z,9.87
2022-12-31T16:03:28.285Z,9.91
2022-12-31T16:06:02.517Z,9.92
2022-12-31T16:08:33.475Z,9.53
2022-12-31T16:11:05.660Z,9.77
2022-12-31T16:13:39.083Z,9.55
2022-12-31T16:16:21.855Z,9.84
2022-12-31T16:18:51.354Z,9.60
2022-12-31T16:21:33.829Z,9.54
2022-12-31T16:24:04.719Z,9.79
2022-12-31T16:26:45.422Z,9.68
2022-12-31T16:29:16.836Z,9.77
2022-12-31T16:31:47.289Z,9.94
2022-12-31T16:34:19.041Z,9.53
2022-12-31T16:36:58.428Z,9.40
2022-12-31T16:39:32.809Z,9.27
2022-12-31T16:42:20.401Z,9.03
2022-12-31T16:44:49.881Z,9.23
2022-12-31T16:47:23.073Z,9.35
2022-12-31T16:50:01.718Z,9.31
2022-12-31T16:52:36.329Z,9.16
2022-12-31T16:55:10.132Z,9.38
2022-12-31T16:57:40.817Z,9.21
2022-12-31T17:00:16.993Z,9.00
2022-12-31T17:02:50.724Z,8.78
2022-12-31T17:05:21.605Z,9.14
2022-12-31T17:07:50.179Z,9.02
2022-12-31T17:10:23.271Z,9.00
2022-12-31T17:15:47.441Z,8.72
2022-12-31T17:18:20.841Z,8.45
2022-12-31T17:20:50.428Z,8.59
2022-12-31T17:23:27.647Z,8.34
2022-12-31T17:26:01.690Z,8.25
2022-12-31T17:28:41.119Z,8.40
2022-12-31T17:31:33.575Z,8.49
2022-12-31T17:34:24.514Z,8.48
2022-12-31T17:37:17.663Z,8.42
2022-12-31T17:39:53.020Z,8.31
2022-12-31T17:42:33.502Z,8.34
2022-12-31T17:45:07.802Z,8.26
2022-12-31T17:47:38.939Z,8.27
2022-12-31T17:50:19.436Z,8.02
2022-12-31T17:52:48.900Z,8.16
2022-12-31T17:55:17.950Z,7.84
2022-12-31T17:57:53.328Z,7.89
2022-12-31T18:00:27.413Z,7.97
2022-12-31T18:02:56.111Z,7.80
2022-12-31T18:05:26.295Z,7.64
2022-12-31T18:07:55.918Z,7.64
2022-12-31T18:10:26.561Z,7.61
2022-12-31T18:12:55.183Z,7.43
2022-12-31T18:15:26.415Z,7.74
2022-12-31T18:17:54.984Z,7.54
2022-12-31T18:20:23.783Z,7.59
2022-12-31T18:22:52.421Z,7.33
2022-12-31T18:25:24.400Z,7.20
2022-12-31T18:27:53.788Z,7.29
2022-12-31T18:30:23.821Z,7.53
2022-12-31T18:32:53.760Z,7.22
2022-12-31T18:38:15.779Z,7.09
2022-12-31T18:40:46.818Z,7.27
2022-12-31T18:43:18.328Z,7.27
2022-12-31T18:45:47.912Z,7.08
2022-12-31T18:48:18.155Z,6.89
2022-12-31T18:50:47.274Z,7.16
2022-12-31T18:53:21.111Z,7.12
2022-12-31T18:55:52.184Z,7.02
2022-12-31T18:58:21.161Z,7.32
2022-12-31T19:00:51.543Z,6.97
2022-12-31T19:03:24.301Z,6.97
2022-12-31T19:05:53.796Z,7.30
2022-12-31T19:08:24.216Z,7.16
2022-12-31T19:10:54.150Z,7.26
2022-12-31T19:13:23.364Z,7.02
2022-12-31T19:15:55.629Z,7.00
2022-12-31T19:18:25.790Z,7.04
2022-12-31T19:20:54.506Z,6.98
2022-12-31T19:23:23.503Z,6.93
2022-12-31T19:25:52.146Z,7.04
2022-12-31T19:28:22.674Z,7.10
2022-12-31T19:30:51.208Z,7.47
2022-12-31T19:33:20.105Z,7.27
2022-12-31T19:35:50.953Z,7.01
2022-12-31T19:38:23.451Z,6.75
2022-12-31T19:40:53.495Z,6.77
2022-12-31T19:43:24.515Z,6.73
2022-12-31T19:45:54.106Z,6.85
2022-12-31T19:48:32.287Z,6.88
2022-12-31T19:51:02.831Z,6.78
2022-12-31T19:53:31.498Z,6.58
2022-12-31T19:55:59.945Z,6.63
2022-12-31T19:58:28.946Z,6.79
2022-12-31T20:01:02.827Z,6.69
2022-12-31T20:03:32.897Z,6.76
2022-12-31T20:06:08.808Z,6.69
2022-12-31T20:08:39.683Z,6.77
2022-12-31T20:11:13.049Z,6.87
2022-12-31T20:13:42.531Z,6.85
2022-12-31T20:16:13.896Z,6.70
2022-12-31T20:18:43.617Z,6.61
2022-12-31T20:21:17.760Z,6.65
2022-12-31T20:23:47.051Z,6.75
2022-12-31T20:26:15.572Z,7.24
2022-12-31T20:28:44.139Z,7.44
2022-12-31T20:31:15.090Z,7.25
2022-12-31T20:33:44.109Z,7.00
2022-12-31T20:36:17.131Z,7.30
2022-12-31T20:38:46.505Z,7.07
2022-12-31T20:41:18.054Z,7.18
2022-12-31T20:43:47.366Z,7.40
2022-12-31T20:46:19.631Z,6.98
2022-12-31T20:48:50.988Z,7.10
2022-12-31T20:51:22.182Z,7.18
2022-12-31T20:53:53.172Z,7.21
2022-12-31T20:56:24.349Z,6.75
2022-12-31T20:58:53.241Z,7.08
2022-12-31T21:01:22.542Z,6.85
2022-12-31T21:04:04.871Z,6.88
2022-12-31T21:06:36.945Z,6.95
2022-12-31T21:09:08.264Z,6.72
2022-12-31T21:11:55.003Z,6.75
2022-12-31T21:14:23.517Z,6.89
2022-12-31T21:16:52.346Z,6.87
2022-12-31T21:19:20.903Z,7.04
2022-12-31T21:21:50.713Z,6.70
2022-12-31T21:24:23.832Z,6.73
2022-12-31T21:26:53.370Z,6.84
2022-12-31T21:29:21.848Z,6.85
2022-12-31T21:31:50.834Z,6.67
2022-12-31T21:34:19.323Z,6.54
2022-12-31T21:36:47.788Z,6.80
2022-12-31T21:39:17.916Z,6.56
2022-12-31T21:41:52.859Z,6.67
2022-12-31T21:44:22.896Z,6.43
2022-12-31T21:47:33.349Z,6.60
2022-12-31T21:49:43.910Z,6.48
2022-12-31T21:52:27.567Z,6.36
2022-12-31T21:55:16.965Z,5.96
2022-12-31T21:58:24.285Z,6.47
2022-12-31T22:00:53.219Z,6.37
2022-12-31T22:03:28.645Z,8.29
2022-12-31T22:06:00.990Z,8.59
2022-12-31T22:08:31.957Z,8.07
2022-12-31T22:11:02.095Z,8.88
2022-12-31T22:13:30.618Z,9.01
2022-12-31T22:16:05.342Z,8.64
2022-12-31T22:18:38.805Z,9.43
2022-12-31T22:21:17.825Z,9.52
2022-12-31T22:23:49.120Z,8.52
2022-12-31T22:26:22.414Z,8.12
2022-12-31T22:28:52.550Z,8.46
2022-12-31T22:31:24.529Z,8.78
2022-12-31T22:33:53.977Z,8.63
2022-12-31T22:36:24.663Z,8.27
2022-12-31T22:38:58.643Z,7.47
2022-12-31T22:41:29.541Z,7.08
2022-12-31T22:44:04.189Z,7.72
2022-12-31T22:46:34.467Z,7.30
2022-12-31T22:49:05.217Z,7.33
2022-12-31T22:51:55.849Z,7.49
2022-12-31T22:54:23.119Z,7.44
2022-12-31T22:56:53.053Z,7.29
2022-12-31T22:59:21.793Z,9.30
2022-12-31T23:01:50.303Z,8.61
2022-12-31T23:04:18.879Z,9.05
2022-12-31T23:06:47.680Z,9.04
2022-12-31T23:09:35.930Z,8.54
2022-12-31T23:12:07.719Z,8.43
2022-12-31T23:14:54.864Z,8.76
2022-12-31T23:17:43.183Z,8.33
2022-12-31T23:20:33.723Z,7.40
2022-12-31T23:23:11.602Z,7.97
2022-12-31T23:25:43.473Z,8.52
2022-12-31T23:28:16.503Z,8.14
2022-12-31T23:30:45.579Z,8.00
2022-12-31T23:33:17.520Z,9.31
2022-12-31T23:35:46.237Z,9.78
2022-12-31T23:38:16.769Z,9.48
2022-12-31T23:40:45.670Z,9.85
2022-12-31T23:43:21.906Z,10.15
2022-12-31T23:45:51.827Z,10.70
2022-12-31T23:48:20.366Z,10.00
2022-12-31T23:50:53.809Z,10.24
2022-12-31T23:53:23.387Z,9.89
2022-12-31T23:55:52.219Z,10.56
2022-12-31T23:58:22.732Z,10.37
